Terminal Aerodrome Forecast
Issued by NWS

Home | Current Version | Previous Version | Graphics & Text | Print | Product List | Glossary On
Versions: 1 2 3 4 5 6 7 8 9 10 11 12 13 14 15 16 17 18 19 20 21 22 23 24 25 26 27
000
FTUS43 KABR 191720
TAFATY
TAF
KATY 191720Z 1918/2018 16016KT P6SM SCT250
     FM200100 17015KT P6SM BKN250 WS020/18040KT
     FM200800 18015G23KT P6SM VCSH OVC015 WS020/20040KT
     FM201100 18014G22KT 4SM -SHRA BR OVC015
     FM201500 20012KT 2SM BR OVC008
     FM201700 24015KT P6SM BKN025=

USA.gov is the U.S. government's official web portal to all federal, state and local government web resources and services.